createdAt,value
2018-06-05T00:01:41.136Z,22.92
2018-06-05T00:04:07.752Z,22.92
2018-06-05T00:06:34.364Z,22.90
2018-06-05T00:09:00.980Z,22.91
2018-06-05T00:11:27.595Z,22.89
2018-06-05T00:13:54.216Z,22.91
2018-06-05T00:16:20.827Z,22.91
2018-06-05T00:18:47.472Z,22.89
2018-06-05T00:21:14.092Z,22.89
2018-06-05T00:23:40.703Z,22.89
2018-06-05T00:26:07.328Z,22.90
2018-06-05T00:28:34.812Z,22.88
2018-06-05T00:31:01.914Z,22.87
2018-06-05T00:33:28.560Z,22.88
2018-06-05T00:35:56.175Z,22.88
2018-06-05T00:38:23.783Z,22.89
2018-06-05T00:40:51.331Z,22.89
2018-06-05T00:43:18.852Z,22.90
2018-06-05T00:45:49.908Z,22.91
2018-06-05T00:48:16.644Z,22.87
2018-06-05T00:50:43.289Z,22.85
2018-06-05T00:53:09.897Z,22.86
2018-06-05T00:55:36.515Z,22.85
2018-06-05T00:58:03.132Z,22.85
2018-06-05T01:00:30.683Z,22.85
2018-06-05T01:02:57.293Z,22.85
2018-06-05T01:05:23.947Z,22.84
2018-06-05T01:07:51.479Z,22.85
2018-06-05T01:10:18.099Z,22.83
2018-06-05T01:12:44.715Z,22.82
2018-06-05T01:15:11.333Z,22.83
2018-06-05T01:17:38.727Z,22.84
2018-06-05T01:20:05.345Z,22.81
2018-06-05T01:22:32.936Z,22.83
2018-06-05T01:24:59.590Z,22.83
2018-06-05T01:27:26.211Z,22.80
2018-06-05T01:29:53.759Z,22.81
2018-06-05T01:32:20.380Z,22.81
2018-06-05T01:34:48.044Z,22.78
2018-06-05T01:37:14.668Z,22.78
2018-06-05T01:39:41.286Z,22.79
2018-06-05T01:42:07.908Z,22.79
2018-06-05T01:44:34.532Z,22.80
2018-06-05T01:47:01.158Z,22.78
2018-06-05T01:49:33.582Z,22.79
2018-06-05T01:52:00.199Z,22.74
2018-06-05T01:54:26.817Z,22.78
2018-06-05T01:56:54.313Z,22.74
2018-06-05T01:59:21.191Z,22.73
2018-06-05T02:01:47.916Z,22.76
2018-06-05T02:04:14.532Z,22.73
2018-06-05T02:06:41.156Z,22.73
2018-06-05T02:09:07.783Z,22.71
2018-06-05T02:11:34.413Z,22.73
2018-06-05T02:14:01.035Z,22.70
2018-06-05T02:16:27.676Z,22.72
2018-06-05T02:18:54.325Z,22.74
2018-06-05T02:21:21.033Z,22.75
2018-06-05T02:23:47.655Z,22.70
2018-06-05T02:26:14.280Z,22.72
2018-06-05T02:28:41.003Z,22.71
2018-06-05T02:31:07.709Z,22.70
2018-06-05T02:33:34.341Z,22.70
2018-06-05T02:36:01.006Z,22.69
2018-06-05T02:38:27.639Z,22.69
2018-06-05T02:40:54.304Z,22.71
2018-06-05T02:43:20.962Z,22.70
2018-06-05T02:45:47.625Z,22.70
2018-06-05T02:48:14.289Z,22.67
2018-06-05T02:50:40.912Z,22.70
2018-06-05T02:53:07.544Z,22.72
2018-06-05T02:55:34.167Z,22.68
2018-06-05T02:58:00.797Z,22.69
2018-06-05T03:00:27.420Z,22.73
2018-06-05T03:02:54.093Z,22.67
2018-06-05T03:05:20.733Z,22.73
2018-06-05T03:07:47.353Z,22.72
2018-06-05T03:10:14.008Z,22.69
2018-06-05T03:12:40.636Z,22.72
2018-06-05T03:15:07.284Z,22.69
2018-06-05T03:17:33.904Z,22.71
2018-06-05T03:20:00.655Z,22.67
2018-06-05T03:22:27.276Z,22.69
2018-06-05T03:24:53.947Z,22.70
2018-06-05T03:27:20.560Z,22.69
2018-06-05T03:29:47.184Z,22.70
2018-06-05T03:32:13.840Z,22.70
2018-06-05T03:34:40.464Z,22.71
2018-06-05T03:37:07.780Z,22.72
2018-06-05T03:39:34.403Z,22.69
2018-06-05T03:42:01.018Z,22.68
2018-06-05T03:44:27.680Z,22.69
2018-06-05T03:46:54.445Z,22.67
2018-06-05T03:49:21.094Z,22.66
2018-06-05T03:51:47.747Z,22.67
2018-06-05T03:54:14.364Z,22.71
2018-06-05T03:56:41.042Z,22.68
2018-06-05T03:59:07.699Z,22.66
2018-06-05T04:01:34.320Z,22.71
2018-06-05T04:04:00.980Z,22.68
2018-06-05T04:06:27.600Z,22.67
2018-06-05T04:08:54.324Z,22.67
2018-06-05T04:11:20.948Z,22.69
2018-06-05T04:13:47.612Z,22.68
2018-06-05T04:16:15.090Z,22.66
2018-06-05T04:18:41.752Z,22.68
2018-06-05T04:21:08.420Z,22.70
2018-06-05T04:23:35.046Z,22.74
2018-06-05T04:26:01.709Z,22.72
2018-06-05T04:28:28.392Z,22.70
2018-06-05T04:30:55.014Z,22.70
2018-06-05T04:33:21.656Z,22.73
2018-06-05T04:35:48.284Z,22.73
2018-06-05T04:38:14.901Z,22.74
2018-06-05T04:40:41.528Z,22.78
2018-06-05T04:43:08.168Z,22.76
2018-06-05T04:45:34.801Z,22.74
2018-06-05T04:48:01.425Z,22.75
2018-06-05T04:50:28.100Z,22.74
2018-06-05T04:52:54.736Z,22.71
2018-06-05T04:55:21.351Z,22.74
2018-06-05T04:57:47.986Z,22.74
2018-06-05T05:00:14.623Z,22.76
2018-06-05T05:02:41.248Z,22.74
2018-06-05T05:05:07.875Z,22.69
2018-06-05T05:07:34.499Z,22.76
2018-06-05T05:10:01.110Z,22.74
2018-06-05T05:12:27.732Z,22.77
2018-06-05T05:14:54.349Z,22.77
2018-06-05T05:17:20.973Z,22.76
2018-06-05T05:19:47.603Z,22.76
2018-06-05T05:22:14.223Z,22.77
2018-06-05T05:24:40.839Z,22.75
2018-06-05T05:27:07.469Z,22.79
2018-06-05T05:29:34.096Z,22.76
2018-06-05T05:32:00.802Z,22.76
2018-06-05T05:34:27.424Z,22.75
2018-06-05T05:36:54.084Z,22.76
2018-06-05T05:39:20.709Z,22.76
2018-06-05T05:41:47.341Z,22.74
2018-06-05T05:44:13.964Z,22.75
2018-06-05T05:46:40.593Z,22.76
2018-06-05T05:49:07.215Z,22.75
2018-06-05T05:51:33.833Z,22.76
2018-06-05T05:54:00.452Z,22.75
2018-06-05T05:56:27.433Z,22.74
2018-06-05T05:58:54.064Z,22.76
2018-06-05T06:01:20.687Z,22.72
2018-06-05T06:03:47.321Z,22.73
2018-06-05T06:06:13.984Z,22.72
2018-06-05T06:08:40.650Z,22.71
2018-06-05T06:11:07.289Z,22.71
2018-06-05T06:13:33.961Z,22.70
2018-06-05T06:16:00.584Z,22.66
2018-06-05T06:18:27.220Z,22.69
2018-06-05T06:20:53.840Z,22.69
2018-06-05T06:23:20.464Z,22.63
2018-06-05T06:25:47.084Z,22.66
2018-06-05T06:28:13.705Z,22.66
2018-06-05T06:30:40.328Z,22.62
2018-06-05T06:33:06.948Z,22.68
2018-06-05T06:35:33.570Z,22.66
2018-06-05T06:38:00.188Z,22.68
2018-06-05T06:40:26.924Z,22.68
2018-06-05T06:42:53.548Z,22.68
2018-06-05T06:45:20.336Z,22.69
2018-06-05T06:47:46.960Z,22.68
2018-06-05T06:50:13.624Z,22.69
2018-06-05T06:52:40.247Z,22.66
2018-06-05T06:55:06.900Z,22.68
2018-06-05T06:57:33.548Z,22.68
2018-06-05T07:00:00.216Z,22.66
2018-06-05T07:02:26.844Z,22.69
2018-06-05T07:04:53.464Z,22.69
2018-06-05T07:07:20.080Z,22.66
2018-06-05T07:09:46.743Z,22.65
2018-06-05T07:12:13.441Z,22.68
2018-06-05T07:14:40.059Z,22.69
2018-06-05T07:17:07.061Z,22.63
2018-06-05T07:19:33.680Z,22.64
2018-06-05T07:22:00.300Z,22.65
2018-06-05T07:24:26.925Z,22.65
2018-06-05T07:26:53.544Z,22.65
2018-06-05T07:29:20.169Z,22.65
2018-06-05T07:31:46.920Z,22.63
2018-06-05T07:34:13.544Z,22.65
2018-06-05T07:36:40.212Z,22.62
2018-06-05T07:39:07.220Z,22.62
2018-06-05T07:41:33.977Z,22.63
2018-06-05T07:44:00.648Z,22.64
2018-06-05T07:46:27.334Z,22.64
2018-06-05T07:48:53.949Z,22.63
2018-06-05T07:51:20.608Z,22.65
2018-06-05T07:53:47.232Z,22.65
2018-06-05T07:56:13.856Z,22.63
2018-06-05T07:58:40.525Z,22.65
2018-06-05T08:01:07.149Z,22.64
2018-06-05T08:03:33.808Z,22.65
2018-06-05T08:06:00.623Z,22.63
2018-06-05T08:08:27.252Z,22.62
2018-06-05T08:10:53.872Z,22.65
2018-06-05T08:13:20.495Z,22.64
2018-06-05T08:15:47.116Z,22.66
2018-06-05T08:18:13.788Z,22.65
2018-06-05T08:20:40.411Z,22.64
2018-06-05T08:23:07.124Z,22.62
2018-06-05T08:25:33.755Z,22.64
2018-06-05T08:28:00.409Z,22.62
2018-06-05T08:30:27.038Z,22.61
2018-06-05T08:32:53.663Z,22.61
2018-06-05T08:35:20.293Z,22.61
2018-06-05T08:37:46.950Z,22.62
2018-06-05T08:40:13.617Z,22.60
2018-06-05T08:42:40.248Z,22.60
2018-06-05T08:45:06.906Z,22.65
2018-06-05T08:47:33.524Z,22.63
2018-06-05T08:50:00.188Z,22.62
2018-06-05T08:52:26.805Z,22.63
2018-06-05T08:54:53.416Z,22.62
2018-06-05T08:57:20.040Z,22.64
2018-06-05T08:59:46.693Z,22.64
2018-06-05T09:02:13.312Z,22.63
2018-06-05T09:04:39.975Z,22.63
2018-06-05T09:07:06.596Z,22.64
2018-06-05T09:09:33.220Z,22.63
2018-06-05T09:11:59.845Z,22.63
2018-06-05T09:14:26.472Z,22.65
2018-06-05T09:16:53.096Z,22.66
2018-06-05T09:19:19.713Z,22.64
2018-06-05T09:21:46.344Z,22.61
2018-06-05T09:24:12.971Z,22.59
2018-06-05T09:26:39.605Z,22.61
2018-06-05T09:29:06.271Z,22.60
2018-06-05T09:31:32.928Z,22.56
2018-06-05T09:33:59.588Z,22.61
2018-06-05T09:36:26.204Z,22.62
2018-06-05T09:38:52.820Z,22.62
2018-06-05T09:41:19.445Z,22.60
2018-06-05T09:43:46.069Z,22.60
2018-06-05T09:46:12.758Z,22.60
2018-06-05T09:48:39.408Z,22.61
2018-06-05T09:51:06.112Z,22.59
2018-06-05T09:53:32.745Z,22.58
2018-06-05T09:55:59.368Z,22.61
2018-06-05T09:58:26.108Z,22.59
2018-06-05T10:00:53.017Z,22.60
2018-06-05T10:03:20.080Z,22.56
2018-06-05T10:05:46.700Z,22.58
2018-06-05T10:08:13.410Z,22.61
2018-06-05T10:10:40.025Z,22.58
2018-06-05T10:13:06.640Z,22.62
2018-06-05T10:15:33.267Z,22.59
2018-06-05T10:17:59.892Z,22.59
2018-06-05T10:20:26.777Z,22.57
2018-06-05T10:22:53.455Z,22.58
2018-06-05T10:25:20.072Z,22.61
2018-06-05T10:27:46.766Z,22.61
2018-06-05T10:30:13.391Z,22.62
2018-06-05T10:32:40.052Z,22.59
2018-06-05T10:35:06.681Z,22.61
2018-06-05T10:37:33.340Z,22.59
2018-06-05T10:39:59.965Z,22.61
2018-06-05T10:42:26.593Z,22.62
2018-06-05T10:44:53.217Z,22.61
2018-06-05T10:47:19.833Z,22.60
2018-06-05T10:49:46.458Z,22.62
2018-06-05T10:52:13.081Z,22.64
2018-06-05T10:54:39.714Z,22.61
2018-06-05T10:57:06.341Z,22.59
2018-06-05T10:59:32.965Z,22.61
2018-06-05T11:01:59.672Z,22.62
2018-06-05T11:04:26.291Z,22.63
2018-06-05T11:06:52.908Z,22.62
2018-06-05T11:09:19.577Z,22.59
2018-06-05T11:11:46.244Z,22.59
2018-06-05T11:14:12.865Z,22.61
2018-06-05T11:16:39.491Z,22.61
2018-06-05T11:19:06.107Z,22.62
2018-06-05T11:21:32.725Z,22.59
2018-06-05T11:23:59.347Z,22.64
2018-06-05T11:26:26.012Z,22.61
2018-06-05T11:28:53.616Z,22.60
2018-06-05T11:31:20.378Z,22.60
2018-06-05T11:33:47.037Z,22.59
2018-06-05T11:36:13.753Z,22.58
2018-06-05T11:38:40.373Z,22.60
2018-06-05T11:41:07.005Z,22.59
2018-06-05T11:43:33.629Z,22.62
2018-06-05T11:46:00.296Z,22.60
2018-06-05T11:48:26.949Z,22.61
2018-06-05T11:50:53.689Z,22.61
2018-06-05T11:53:20.308Z,22.64
2018-06-05T11:55:46.972Z,22.60
2018-06-05T11:58:13.593Z,22.60
2018-06-05T12:00:40.239Z,22.61
2018-06-05T12:03:06.866Z,22.64
2018-06-05T12:05:33.515Z,22.63
2018-06-05T12:08:00.139Z,22.60
2018-06-05T12:10:26.760Z,22.60
2018-06-05T12:12:53.425Z,22.63
2018-06-05T12:15:20.044Z,22.62
2018-06-05T12:17:46.686Z,22.60
2018-06-05T12:20:13.344Z,22.59
2018-06-05T12:22:39.969Z,22.61
2018-06-05T12:25:06.592Z,22.61
2018-06-05T12:27:33.212Z,22.63
2018-06-05T12:29:59.837Z,22.63
2018-06-05T12:32:26.491Z,22.65
2018-06-05T12:34:53.113Z,22.60
2018-06-05T12:37:19.729Z,22.63
2018-06-05T12:39:46.476Z,22.61
2018-06-05T12:42:13.097Z,22.62
2018-06-05T12:44:39.735Z,22.60
2018-06-05T12:47:06.360Z,22.59
2018-06-05T12:49:32.976Z,22.55
2018-06-05T12:51:59.601Z,22.58
2018-06-05T12:54:26.221Z,22.62
2018-06-05T12:56:52.836Z,22.60
2018-06-05T12:59:19.468Z,22.60
2018-06-05T13:01:46.125Z,22.63
2018-06-05T13:04:12.778Z,22.61
2018-06-05T13:06:39.435Z,22.59
2018-06-05T13:09:06.733Z,22.60
2018-06-05T13:11:33.349Z,22.60
2018-06-05T13:14:01.070Z,22.59
2018-06-05T13:16:27.712Z,22.59
2018-06-05T13:18:54.373Z,22.57
2018-06-05T13:21:21.000Z,22.59
2018-06-05T13:23:47.668Z,22.59
2018-06-05T13:26:14.289Z,22.57
2018-06-05T13:28:40.911Z,22.58
2018-06-05T13:31:07.624Z,22.63
2018-06-05T13:33:34.253Z,22.59
2018-06-05T13:36:01.701Z,22.57
2018-06-05T13:38:28.325Z,22.57
2018-06-05T13:40:55.901Z,22.59
2018-06-05T13:43:22.525Z,22.58
2018-06-05T13:45:49.152Z,22.56
2018-06-05T13:48:15.785Z,22.58
2018-06-05T13:50:42.411Z,22.60
2018-06-05T13:53:09.064Z,22.60
2018-06-05T13:55:35.748Z,22.61
2018-06-05T13:58:02.377Z,22.59
2018-06-05T14:00:29.001Z,22.60
2018-06-05T14:02:55.625Z,22.57
2018-06-05T14:05:22.247Z,22.54
2018-06-05T14:07:48.880Z,22.51
2018-06-05T14:10:15.504Z,22.55
2018-06-05T14:12:42.182Z,22.57
2018-06-05T14:15:09.556Z,22.54
2018-06-05T14:17:36.221Z,22.62
2018-06-05T14:20:02.892Z,22.65
2018-06-05T14:22:29.573Z,22.68
2018-06-05T14:24:56.194Z,22.81
2018-06-05T14:27:22.827Z,23.00
2018-06-05T14:29:49.457Z,23.05
2018-06-05T14:32:16.125Z,23.12
2018-06-05T14:34:42.753Z,23.17
2018-06-05T14:37:09.373Z,23.22
2018-06-05T14:39:36.037Z,23.17
2018-06-05T14:42:02.661Z,23.17
2018-06-05T14:44:29.341Z,23.20
2018-06-05T14:46:55.965Z,23.22
2018-06-05T14:49:22.589Z,23.17
2018-06-05T14:51:49.253Z,23.15
2018-06-05T14:54:15.888Z,23.14
2018-06-05T14:56:42.517Z,23.12
2018-06-05T14:59:09.953Z,23.19
2018-06-05T15:01:36.576Z,23.20
2018-06-05T15:04:03.197Z,23.13
2018-06-05T15:06:29.813Z,23.16
2018-06-05T15:08:56.435Z,23.12
2018-06-05T15:11:23.101Z,23.20
2018-06-05T15:13:49.733Z,23.13
2018-06-05T15:16:16.421Z,23.07
2018-06-05T15:18:43.049Z,23.17
2018-06-05T15:21:09.665Z,23.04
2018-06-05T15:23:36.331Z,23.11
2018-06-05T15:26:02.953Z,23.01
2018-06-05T15:28:29.581Z,23.19
2018-06-05T15:30:57.191Z,23.07
2018-06-05T15:33:23.815Z,23.12
2018-06-05T15:35:50.477Z,23.12
2018-06-05T15:38:17.140Z,23.10
2018-06-05T15:40:43.792Z,23.01
2018-06-05T15:43:10.448Z,23.09
2018-06-05T15:45:37.078Z,23.00
2018-06-05T15:48:03.722Z,23.01
2018-06-05T15:50:30.414Z,23.04
2018-06-05T15:52:57.036Z,23.01
2018-06-05T15:55:23.656Z,23.04
2018-06-05T15:57:50.278Z,22.94
2018-06-05T16:00:16.901Z,23.05
2018-06-05T16:02:43.528Z,23.06
2018-06-05T16:05:10.149Z,23.08
2018-06-05T16:07:36.777Z,23.00
2018-06-05T16:10:03.440Z,22.98
2018-06-05T16:12:30.065Z,23.02
2018-06-05T16:14:56.693Z,23.00
2018-06-05T16:17:23.352Z,23.01
2018-06-05T16:19:49.989Z,22.96
2018-06-05T16:22:16.611Z,23.02
2018-06-05T16:24:43.237Z,23.02
2018-06-05T16:27:09.940Z,22.97
2018-06-05T16:29:36.559Z,22.99
2018-06-05T16:32:03.184Z,23.08
2018-06-05T16:34:29.844Z,23.06
2018-06-05T16:36:56.465Z,23.07
2018-06-05T16:39:23.097Z,23.03
2018-06-05T16:41:49.728Z,22.97
2018-06-05T16:44:16.393Z,22.98
2018-06-05T16:46:43.017Z,22.94
2018-06-05T16:49:09.673Z,23.04
2018-06-05T16:51:36.304Z,22.97
2018-06-05T16:54:02.928Z,22.87
2018-06-05T16:56:29.560Z,22.95
2018-06-05T16:58:56.184Z,22.92
2018-06-05T17:01:22.829Z,22.96
2018-06-05T17:03:49.462Z,22.81
2018-06-05T17:06:16.097Z,22.98
2018-06-05T17:08:42.812Z,23.02
2018-06-05T17:11:09.442Z,22.97
2018-06-05T17:13:36.069Z,23.00
2018-06-05T17:16:02.712Z,22.94
2018-06-05T17:18:29.360Z,22.91
2018-06-05T17:20:55.989Z,22.92
2018-06-05T17:23:22.633Z,22.94
2018-06-05T17:25:49.264Z,22.92
2018-06-05T17:28:15.902Z,22.90
2018-06-05T17:30:42.645Z,22.89
2018-06-05T17:33:09.286Z,22.90
2018-06-05T17:35:35.909Z,22.88
2018-06-05T17:38:02.537Z,22.88
2018-06-05T17:40:29.206Z,22.91
2018-06-05T17:42:55.816Z,22.91
2018-06-05T17:45:22.452Z,22.88
2018-06-05T17:47:49.079Z,22.89
2018-06-05T17:50:15.707Z,22.84
2018-06-05T17:52:42.324Z,22.89
2018-06-05T17:55:08.951Z,22.86
2018-06-05T17:57:35.590Z,22.85
2018-06-05T18:00:02.253Z,22.84
2018-06-05T18:02:28.889Z,22.87
2018-06-05T18:04:57.645Z,22.89
2018-06-05T18:07:24.340Z,22.88
2018-06-05T18:09:50.985Z,22.84
2018-06-05T18:12:18.593Z,22.85
2018-06-05T18:14:45.256Z,22.84
2018-06-05T18:17:12.053Z,22.83
2018-06-05T18:19:38.909Z,22.85
2018-06-05T18:22:05.573Z,22.83
2018-06-05T18:24:32.201Z,22.86
2018-06-05T18:26:59.136Z,22.84
2018-06-05T18:29:25.866Z,22.83
2018-06-05T18:31:54.463Z,22.81
2018-06-05T18:34:21.120Z,22.85
2018-06-05T18:36:47.859Z,22.85
2018-06-05T18:39:14.524Z,22.83
2018-06-05T18:41:41.157Z,22.77
2018-06-05T18:44:07.784Z,22.82
2018-06-05T18:46:34.577Z,22.82
2018-06-05T18:49:01.243Z,22.81
2018-06-05T18:51:27.884Z,22.82
2018-06-05T18:53:54.652Z,22.82
2018-06-05T18:56:21.324Z,22.84
2018-06-05T18:58:47.957Z,22.82
2018-06-05T19:01:14.629Z,22.79
2018-06-05T19:03:41.304Z,22.82
2018-06-05T19:06:07.999Z,22.82
2018-06-05T19:08:34.636Z,22.83
2018-06-05T19:11:01.297Z,22.76
2018-06-05T19:13:27.930Z,22.78
2018-06-05T19:15:54.566Z,22.78
2018-06-05T19:18:21.221Z,22.78
2018-06-05T19:20:47.853Z,22.76
2018-06-05T19:23:14.593Z,22.79
2018-06-05T19:25:41.246Z,22.80
2018-06-05T19:28:07.927Z,22.75
2018-06-05T19:30:34.633Z,22.75
2018-06-05T19:33:01.246Z,22.67
2018-06-05T19:35:27.901Z,22.68
2018-06-05T19:37:54.525Z,22.64
2018-06-05T19:40:21.213Z,22.65
2018-06-05T19:42:47.881Z,22.59
2018-06-05T19:45:14.614Z,22.61
2018-06-05T19:47:41.253Z,22.66
2018-06-05T19:50:07.900Z,22.61
2018-06-05T19:52:34.534Z,22.64
2018-06-05T19:55:01.212Z,22.62
2018-06-05T19:57:27.842Z,22.61
2018-06-05T19:59:54.473Z,22.61
2018-06-05T20:02:22.044Z,22.57
2018-06-05T20:04:48.685Z,22.56
2018-06-05T20:07:15.353Z,22.59
2018-06-05T20:09:42.016Z,22.53
2018-06-05T20:12:08.684Z,22.53
2018-06-05T20:14:35.336Z,22.50
2018-06-05T20:17:02.425Z,22.48
2018-06-05T20:19:29.084Z,22.48
2018-06-05T20:21:55.789Z,22.52
2018-06-05T20:24:22.516Z,22.48
2018-06-05T20:26:49.142Z,22.51
2018-06-05T20:29:15.772Z,22.47
2018-06-05T20:31:42.449Z,22.43
2018-06-05T20:34:09.122Z,22.47
2018-06-05T20:36:35.790Z,22.52
2018-06-05T20:39:02.470Z,22.48
2018-06-05T20:41:29.121Z,22.50
2018-06-05T20:43:55.793Z,22.46
2018-06-05T20:46:22.424Z,22.50
2018-06-05T20:48:49.143Z,22.46
2018-06-05T20:51:15.767Z,22.46
2018-06-05T20:53:42.436Z,22.45
2018-06-05T20:56:09.066Z,22.46
2018-06-05T20:58:35.733Z,22.46
2018-06-05T21:01:02.356Z,22.42
2018-06-05T21:03:28.985Z,22.40
2018-06-05T21:05:56.641Z,22.46
2018-06-05T21:08:23.303Z,22.45
2018-06-05T21:10:49.971Z,22.35
2018-06-05T21:13:16.595Z,22.39
2018-06-05T21:15:43.266Z,22.36
2018-06-05T21:18:09.904Z,22.42
2018-06-05T21:20:36.531Z,22.42
2018-06-05T21:23:03.161Z,22.41
2018-06-05T21:25:29.781Z,22.38
2018-06-05T21:27:56.416Z,22.35
2018-06-05T21:30:23.063Z,22.28
2018-06-05T21:32:49.701Z,22.31
2018-06-05T21:35:16.381Z,22.32
2018-06-05T21:37:43.005Z,22.35
2018-06-05T21:40:09.676Z,22.31
2018-06-05T21:42:36.372Z,22.22
2018-06-05T21:45:03.024Z,22.24
2018-06-05T21:47:29.648Z,22.21
2018-06-05T21:49:56.289Z,22.25
2018-06-05T21:52:22.915Z,22.27
2018-06-05T21:54:49.545Z,22.19
2018-06-05T21:57:16.168Z,22.20
2018-06-05T21:59:42.797Z,22.19
2018-06-05T22:04:35.541Z,22.22
2018-06-05T22:07:02.165Z,22.22
2018-06-05T22:09:28.789Z,22.21
2018-06-05T22:11:55.408Z,22.18
2018-06-05T22:14:22.023Z,22.21
2018-06-05T22:19:15.743Z,22.14
2018-06-05T22:21:42.380Z,22.20
2018-06-05T22:24:09.004Z,22.16
2018-06-05T22:26:35.621Z,22.31
2018-06-05T22:29:02.252Z,22.12
2018-06-05T22:31:28.886Z,22.17
2018-06-05T22:33:55.516Z,22.10
2018-06-05T22:36:22.932Z,22.14
2018-06-05T22:38:49.556Z,22.15
2018-06-05T22:41:16.172Z,22.10
2018-06-05T22:43:42.935Z,22.08
2018-06-05T22:46:09.553Z,22.10
2018-06-05T22:48:36.181Z,22.09
2018-06-05T22:51:02.797Z,22.11
2018-06-05T22:53:29.421Z,22.13
2018-06-05T22:55:56.042Z,22.18
2018-06-05T22:58:22.668Z,22.08
2018-06-05T23:00:49.313Z,22.08
2018-06-05T23:03:15.930Z,22.05
2018-06-05T23:05:42.557Z,22.08
2018-06-05T23:08:09.191Z,22.04
2018-06-05T23:10:35.812Z,22.07
2018-06-05T23:13:02.465Z,22.09
2018-06-05T23:15:29.085Z,22.03
2018-06-05T23:17:55.701Z,22.03
2018-06-05T23:20:22.324Z,22.05
2018-06-05T23:22:48.946Z,22.14
2018-06-05T23:25:15.568Z,22.07
2018-06-05T23:27:42.192Z,22.10
2018-06-05T23:30:08.808Z,22.01
2018-06-05T23:32:35.437Z,22.13
2018-06-05T23:35:02.976Z,22.01
2018-06-05T23:37:29.596Z,21.99
2018-06-05T23:39:56.219Z,21.99
2018-06-05T23:42:22.893Z,21.97
2018-06-05T23:44:49.488Z,22.00
2018-06-05T23:47:16.107Z,21.99
2018-06-05T23:49:42.771Z,22.02
2018-06-05T23:52:09.395Z,22.00
2018-06-05T23:54:36.103Z,21.91
2018-06-05T23:57:02.727Z,22.04
2018-06-05T23:59:29.349Z,22.00
